Time;durP1;ratioP1;P1;durP2;ratioP2;P2;SDS_P1;SDS_P2;PMS_P1;PMS_P2;Temp;Humidity;BMP_temperature;BMP_pressure;BME280_temperature;BME280_humidity;BME280_pressure;Samples;Min_cycle;Max_cycle;Signal;HPM_P1;HPM_P2
2021/06/05 00:00:44;;;;;;;12.47;4.15;;;;;;;15.92;67.74;100856.44;1694725;82;20976;-45
2021/06/05 00:03:12;;;;;;;6.47;3.97;;;;;;;15.88;67.53;100856.31;1699706;82;21004;-44
2021/06/05 00:05:42;;;;;;;8.53;4.62;;;;;;;15.84;67.28;100851.27;1653448;83;21388;-47
2021/06/05 00:08:09;;;;;;;5.22;3.98;;;;;;;15.81;67.17;100850.17;1681511;82;21798;-46
2021/06/05 00:10:41;;;;;;;6.62;3.98;;;;;;;15.76;67.19;100849.16;1683122;82;21355;-45
2021/06/05 00:13:12;;;;;;;9.68;4.47;;;;;;;15.71;66.82;100848.16;1673139;82;20976;-44
2021/06/05 00:15:40;;;;;;;7.17;4.12;;;;;;;15.68;66.96;100842.98;1689999;82;21533;-45
2021/06/05 00:18:07;;;;;;;8.38;6.20;;;;;;;15.65;67.28;100845.91;1679701;82;20970;-45
2021/06/05 00:20:37;;;;;;;10.72;5.05;;;;;;;15.61;67.30;100841.71;1701222;82;20992;-44
2021/06/05 00:23:05;;;;;;;9.55;5.25;;;;;;;15.58;67.31;100842.80;1683110;82;20984;-44
2021/06/05 00:25:32;;;;;;;7.37;4.40;;;;;;;15.53;67.14;100848.14;1714410;81;21455;-43
2021/06/05 00:28:00;;;;;;;7.30;4.75;;;;;;;15.47;67.15;100841.86;1712637;81;20977;-45
2021/06/05 00:30:27;;;;;;;7.20;4.35;;;;;;;15.43;67.49;100844.42;1752109;80;20994;-43
2021/06/05 00:32:54;;;;;;;8.43;4.62;;;;;;;15.39;67.76;100841.57;1751815;79;21004;-45
2021/06/05 00:35:22;;;;;;;9.43;4.45;;;;;;;15.34;67.91;100838.72;1740346;79;20949;-47
2021/06/05 00:37:48;;;;;;;6.85;4.35;;;;;;;15.30;67.77;100842.62;1764805;79;20988;-46
2021/06/05 00:40:16;;;;;;;6.40;3.90;;;;;;;15.29;67.25;100840.88;1745077;79;21016;-45
2021/06/05 00:42:43;;;;;;;6.08;3.95;;;;;;;15.29;66.94;100840.88;1750167;79;20981;-46
2021/06/05 00:45:11;;;;;;;8.50;4.33;;;;;;;15.26;66.46;100841.11;1744685;79;20992;-45
2021/06/05 00:47:39;;;;;;;9.10;5.15;;;;;;;15.25;66.66;100845.27;1764807;80;21299;-46
2021/06/05 00:50:08;;;;;;;8.63;6.22;;;;;;;15.22;67.16;100846.36;1731692;80;21555;-49
2021/06/05 00:52:35;;;;;;;8.70;6.12;;;;;;;15.19;67.36;100844.36;1738296;80;22088;-43
2021/06/05 00:55:04;;;;;;;8.43;5.10;;;;;;;15.18;67.60;100847.53;1758458;79;20982;-45
2021/06/05 00:57:31;;;;;;;8.68;5.22;;;;;;;15.17;67.77;100845.83;1755669;79;21027;-45
2021/06/05 00:59:58;;;;;;;9.85;5.12;;;;;;;15.17;68.07;100843.60;1737869;80;21022;-45
2021/06/05 01:02:25;;;;;;;8.70;4.80;;;;;;;15.13;68.15;100837.61;1725365;80;21467;-44
2021/06/05 01:04:52;;;;;;;8.00;4.12;;;;;;;15.11;68.46;100836.85;1742315;80;20973;-42
2021/06/05 01:07:25;;;;;;;13.10;8.88;;;;;;;15.11;68.77;100838.19;1757110;79;20988;-44
2021/06/05 01:10:19;;;;;;;12.78;7.03;;;;;;;15.10;68.89;100841.86;1755161;79;21034;-44
2021/06/05 01:12:57;;;;;;;8.28;5.72;;;;;;;15.09;69.08;100845.50;1742429;79;21565;-43
2021/06/05 01:15:40;;;;;;;7.23;4.17;;;;;;;15.09;69.39;100841.02;1758965;79;20957;-43
2021/06/05 01:18:11;;;;;;;6.95;3.80;;;;;;;15.09;69.92;100842.81;1744214;80;20940;-43
2021/06/05 01:20:50;;;;;;;7.60;4.55;;;;;;;15.10;70.52;100843.20;1760473;79;21351;-43
2021/06/05 01:23:42;;;;;;;10.72;4.40;;;;;;;15.10;71.12;100840.52;1743939;79;21479;-43
2021/06/05 01:26:31;;;;;;;4.92;3.80;;;;;;;15.10;71.56;100848.09;1729612;80;21005;-42
2021/06/05 01:29:17;;;;;;;6.45;4.30;;;;;;;15.11;71.98;100848.94;1751228;79;20949;-42
2021/06/05 01:31:53;;;;;;;6.22;3.87;;;;;;;15.10;72.22;100841.38;1741650;79;20984;-44
2021/06/05 01:34:22;;;;;;;8.95;4.17;;;;;;;15.10;72.45;100845.89;1744196;79;21859;-42
2021/06/05 01:36:52;;;;;;;10.40;3.80;;;;;;;15.05;72.65;100842.67;1742060;79;21437;-42
2021/06/05 01:39:24;;;;;;;6.90;4.00;;;;;;;15.00;72.35;100839.46;1730395;79;21020;-46
2021/06/05 01:41:50;;;;;;;6.22;4.28;;;;;;;14.91;72.09;100836.93;1738082;80;20956;-43
2021/06/05 01:44:17;;;;;;;6.65;4.25;;;;;;;14.85;72.00;100837.37;1709730;79;20953;-43
2021/06/05 01:46:46;;;;;;;9.40;4.33;;;;;;;14.80;71.99;100839.04;1759723;79;21299;-46
2021/06/05 01:49:14;;;;;;;8.90;4.53;;;;;;;14.78;72.14;100840.97;1760316;79;20973;-47
2021/06/05 01:51:49;;;;;;;10.00;4.40;;;;;;;14.78;71.82;100845.48;1707966;81;21562;-47
2021/06/05 01:54:36;;;;;;;6.62;3.85;;;;;;;14.76;71.45;100847.41;1731850;80;20980;-45
2021/06/05 01:57:07;;;;;;;7.97;4.28;;;;;;;14.75;70.93;100835.82;1726517;81;21028;-45
2021/06/05 01:59:48;;;;;;;7.12;4.50;;;;;;;14.74;70.69;100840.83;1753492;79;20988;-47
2021/06/05 02:02:17;;;;;;;6.12;4.47;;;;;;;14.71;70.62;100838.33;1735091;80;20985;-47
2021/06/05 02:04:45;;;;;;;9.35;4.28;;;;;;;14.69;70.61;100839.80;1746979;80;20972;-47
2021/06/05 02:07:14;;;;;;;7.60;4.17;;;;;;;14.65;70.66;100838.78;1748603;79;21028;-49
2021/06/05 02:09:44;;;;;;;6.08;4.50;;;;;;;14.59;70.92;100837.39;1743560;79;20988;-48
2021/06/05 02:12:24;;;;;;;8.90;4.53;;;;;;;14.57;71.20;100838.46;1749759;79;21122;-48
2021/06/05 02:15:11;;;;;;;6.95;3.65;;;;;;;14.54;71.43;100839.53;1754707;79;20987;-50
2021/06/05 02:17:41;;;;;;;6.95;4.30;;;;;;;14.53;71.66;100835.57;1732208;80;20987;-50
2021/06/05 02:20:23;;;;;;;8.20;4.92;;;;;;;14.51;72.01;100841.03;1758533;79;20984;-47
2021/06/05 02:22:51;;;;;;;6.70;4.08;;;;;;;14.47;72.49;100840.89;1716664;81;20968;-51
2021/06/05 02:25:21;;;;;;;6.40;4.00;;;;;;;14.45;73.14;100834.77;1705975;82;21350;-49
2021/06/05 02:27:51;;;;;;;9.20;4.75;;;;;;;14.42;73.54;100835.84;1735142;79;20971;-50
2021/06/05 02:30:20;;;;;;;8.30;4.70;;;;;;;14.40;73.94;100837.76;1754689;79;21032;-49
2021/06/05 02:32:47;;;;;;;5.35;3.87;;;;;;;14.40;74.37;100835.07;1747545;79;21883;-46
2021/06/05 02:35:19;;;;;;;5.72;4.17;;;;;;;14.40;74.58;100833.73;1719752;79;21025;-47
2021/06/05 02:37:50;;;;;;;11.78;8.93;;;;;;;14.38;74.66;100835.66;1750278;79;20980;-44
2021/06/05 02:40:21;;;;;;;9.28;7.75;;;;;;;14.39;74.88;100832.03;1751440;79;20940;-46
2021/06/05 02:42:48;;;;;;;9.05;5.90;;;;;;;14.39;75.05;100830.69;1735228;80;21459;-47
2021/06/05 02:45:35;;;;;;;9.13;6.12;;;;;;;14.40;75.27;100831.05;1747618;79;20972;-47
2021/06/05 02:48:02;;;;;;;8.48;6.75;;;;;;;14.44;75.36;100834.40;1738446;79;20977;-43
2021/06/05 02:50:44;;;;;;;5.65;5.08;;;;;;;14.45;75.45;100833.42;1721938;81;21014;-44
2021/06/05 02:53:12;;;;;;;6.60;4.47;;;;;;;14.47;75.46;100828.81;1755014;79;20992;-47
2021/06/05 02:55:40;;;;;;;7.30;4.10;;;;;;;14.47;75.32;100833.69;1746355;79;22221;-43
2021/06/05 02:58:07;;;;;;;8.23;4.15;;;;;;;14.47;75.32;100834.18;1731328;81;21015;-50
2021/06/05 03:00:38;;;;;;;7.05;4.58;;;;;;;14.45;75.28;100836.95;1744087;79;21330;-47
2021/06/05 03:03:07;;;;;;;6.62;3.77;;;;;;;14.44;75.08;100837.94;1739589;79;20948;-46
2021/06/05 03:05:34;;;;;;;4.65;3.95;;;;;;;14.44;74.98;100835.25;1740320;80;21373;-49
2021/06/05 03:08:02;;;;;;;7.03;4.47;;;;;;;14.44;74.98;100837.08;1721433;81;20975;-51
2021/06/05 03:10:31;;;;;;;10.15;4.15;;;;;;;14.44;74.95;100839.77;1675346;82;21328;-48
2021/06/05 03:13:00;;;;;;;7.33;4.65;;;;;;;14.42;74.95;100836.32;1724055;81;21006;-43
2021/06/05 03:15:29;;;;;;;7.92;5.28;;;;;;;14.41;75.03;100836.81;1738707;79;21107;-44
2021/06/05 03:17:57;;;;;;;6.55;4.12;;;;;;;14.41;75.12;100834.59;1761337;79;20995;-44
2021/06/05 03:20:28;;;;;;;7.12;4.35;;;;;;;14.44;75.15;100838.42;1760315;79;20953;-46
2021/06/05 03:22:57;;;;;;;9.18;4.42;;;;;;;14.44;75.26;100843.30;1761870;79;21832;-47
2021/06/05 03:25:24;;;;;;;5.37;4.30;;;;;;;14.46;75.40;100844.06;1729810;79;20968;-47
2021/06/05 03:27:51;;;;;;;6.87;4.65;;;;;;;14.47;75.54;100839.05;1758685;79;21077;-44
2021/06/05 03:30:18;;;;;;;7.00;4.10;;;;;;;14.48;75.75;100844.78;1750035;79;20952;-43
2021/06/05 03:32:47;;;;;;;7.15;3.70;;;;;;;14.50;75.83;100840.67;1762471;79;21467;-43
2021/06/05 03:35:13;;;;;;;5.33;4.25;;;;;;;14.52;76.24;100838.74;1767349;79;20956;-43
2021/06/05 03:37:41;;;;;;;5.97;4.33;;;;;;;14.56;76.62;100839.41;1750944;79;20933;-44
2021/06/05 03:40:10;;;;;;;7.00;4.22;;;;;;;14.60;76.99;100841.78;1733022;80;20971;-46
2021/06/05 03:42:37;;;;;;;8.35;4.83;;;;;;;14.62;76.96;100832.29;1739578;79;20964;-45
2021/06/05 03:45:06;;;;;;;6.55;4.65;;;;;;;14.61;76.55;100840.80;1751808;79;21027;-47
2021/06/05 03:47:33;;;;;;;7.60;4.45;;;;;;;14.64;75.89;100837.04;1758237;79;20972;-48
2021/06/05 03:50:01;;;;;;;7.35;5.12;;;;;;;14.68;75.43;100835.38;1751686;79;20987;-50
2021/06/05 03:52:30;;;;;;;9.80;5.15;;;;;;;14.74;75.53;100833.23;1758849;79;21516;-45
2021/06/05 03:54:57;;;;;;;10.23;5.65;;;;;;;14.75;75.47;100829.60;1734821;80;21362;-48
2021/06/05 03:57:25;;;;;;;9.30;5.17;;;;;;;14.77;75.36;100834.39;1752881;79;20913;-47
2021/06/05 03:59:54;;;;;;;6.12;4.37;;;;;;;14.79;75.38;100824.38;1749796;79;20976;-44
2021/06/05 04:02:21;;;;;;;8.65;4.90;;;;;;;14.82;75.69;100826.86;1758265;79;20980;-44
2021/06/05 04:04:48;;;;;;;6.60;4.83;;;;;;;14.84;76.05;100823.56;1764141;79;21048;-46
2021/06/05 04:07:17;;;;;;;8.88;4.55;;;;;;;14.89;76.34;100829.46;1750518;79;20967;-47
2021/06/05 04:09:44;;;;;;;7.37;4.90;;;;;;;14.96;76.68;100831.23;1759433;79;21019;-44
2021/06/05 04:12:11;;;;;;;7.83;5.42;;;;;;;15.02;77.20;100828.98;1758350;79;21015;-43
2021/06/05 04:14:40;;;;;;;9.70;4.55;;;;;;;15.09;77.37;100826.70;1756002;79;20944;-44
2021/06/05 04:17:08;;;;;;;8.35;5.00;;;;;;;15.17;77.63;100829.72;1744559;80;20975;-44
2021/06/05 04:19:35;;;;;;;8.30;4.75;;;;;;;15.26;77.97;100825.00;1760969;79;20926;-51
2021/06/05 04:22:02;;;;;;;6.58;4.05;;;;;;;15.32;78.02;100821.88;1736878;80;20944;-47
2021/06/05 04:24:30;;;;;;;6.53;4.45;;;;;;;15.41;77.92;100821.67;1730996;79;20962;-44
2021/06/05 04:26:57;;;;;;;8.53;4.70;;;;;;;15.48;77.65;100822.95;1758741;79;21486;-43
2021/06/05 04:29:23;;;;;;;6.80;4.10;;;;;;;15.55;77.54;100821.53;1762943;79;20941;-45
2021/06/05 04:31:51;;;;;;;6.62;4.85;;;;;;;15.62;77.05;100814.34;1740143;79;21042;-47
2021/06/05 04:34:17;;;;;;;5.25;3.83;;;;;;;15.69;76.69;100815.14;1746049;80;20992;-47
2021/06/05 04:36:44;;;;;;;8.25;4.50;;;;;;;15.78;76.30;100814.95;1751021;79;21436;-49
2021/06/05 04:39:11;;;;;;;5.60;3.77;;;;;;;15.87;76.31;100819.63;1763211;79;20940;-43
2021/06/05 04:41:38;;;;;;;6.15;4.80;;;;;;;15.95;76.24;100819.05;1756584;79;20968;-44
2021/06/05 04:44:05;;;;;;;7.22;4.60;;;;;;;16.03;75.54;100816.66;1772347;79;21008;-45
2021/06/05 04:46:31;;;;;;;4.20;3.33;;;;;;;16.10;75.04;100817.91;1756834;79;20956;-49
2021/06/05 04:48:58;;;;;;;5.65;4.97;;;;;;;16.16;75.42;100816.08;1744713;79;20970;-48
2021/06/05 04:51:26;;;;;;;7.75;4.17;;;;;;;16.23;75.43;100810.60;1763642;79;20960;-48
2021/06/05 04:53:52;;;;;;;6.40;5.28;;;;;;;16.29;74.92;100809.27;1722884;80;20956;-47
2021/06/05 04:56:27;;;;;;;7.03;3.85;;;;;;;16.38;74.45;100807.71;1760715;79;20948;-51
2021/06/05 04:58:55;;;;;;;7.70;4.55;;;;;;;16.47;73.49;100804.77;1761966;79;21011;-49
2021/06/05 05:01:22;;;;;;;5.95;3.98;;;;;;;16.55;71.60;100800.49;1751626;79;20968;-50
2021/06/05 05:03:49;;;;;;;7.60;4.25;;;;;;;16.63;69.93;100799.89;1762743;80;20969;-51
2021/06/05 05:06:15;;;;;;;5.95;3.05;;;;;;;16.70;69.21;100797.08;1761134;79;21495;-51
2021/06/05 05:08:42;;;;;;;5.72;3.67;;;;;;;16.76;69.38;100799.31;1763963;79;20972;-48
2021/06/05 05:11:10;;;;;;;6.30;3.22;;;;;;;16.83;68.93;100798.34;1763386;79;20921;-49
2021/06/05 05:13:38;;;;;;;4.92;3.10;;;;;;;16.91;68.31;100797.27;1760865;79;20986;-48
2021/06/05 05:16:05;;;;;;;6.45;3.17;;;;;;;17.01;68.01;100801.39;1761855;79;20984;-45
2021/06/05 05:18:32;;;;;;;5.20;2.90;;;;;;;17.10;67.74;100799.31;1741707;80;21527;-48
2021/06/05 05:21:01;;;;;;;6.97;4.03;;;;;;;17.17;66.84;100796.50;1758202;79;20977;-48
2021/06/05 05:23:29;;;;;;;6.42;4.17;;;;;;;17.23;65.82;100794.63;1757101;80;20992;-44
2021/06/05 05:25:58;;;;;;;8.33;3.58;;;;;;;17.32;64.95;100794.89;1757409;79;21299;-45
2021/06/05 05:28:26;;;;;;;6.78;3.40;;;;;;;17.38;64.65;100791.67;1757744;79;21024;-44
2021/06/05 05:30:54;;;;;;;5.47;3.37;;;;;;;17.44;64.15;100786.65;1750066;80;21004;-46
2021/06/05 05:33:22;;;;;;;4.40;3.00;;;;;;;17.50;62.37;100780.73;1745882;79;20956;-45
2021/06/05 05:35:50;;;;;;;8.03;3.00;;;;;;;17.55;62.48;100780.36;1720137;81;21453;-50
2021/06/05 05:38:18;;;;;;;5.50;2.60;;;;;;;17.60;62.28;100774.59;1748818;79;20979;-47
2021/06/05 05:40:46;;;;;;;6.65;3.00;;;;;;;17.66;61.84;100777.61;1746622;79;21030;-45
2021/06/05 05:43:15;;;;;;;4.85;2.70;;;;;;;17.70;61.67;100776.38;1746148;79;20999;-42
2021/06/05 05:45:42;;;;;;;5.70;2.27;;;;;;;17.77;61.75;100771.34;1757089;79;20960;-46
2021/06/05 05:48:10;;;;;;;5.65;3.22;;;;;;;17.84;61.07;100771.22;1747918;80;21037;-46
2021/06/05 05:50:38;;;;;;;5.35;2.37;;;;;;;17.89;60.78;100767.64;1745297;80;20995;-47
2021/06/05 05:53:05;;;;;;;3.33;2.27;;;;;;;17.94;59.88;100768.11;1740046;80;20959;-47
2021/06/05 05:55:31;;;;;;;3.85;2.45;;;;;;;17.99;58.65;100766.34;1766204;79;21479;-47
2021/06/05 05:58:07;;;;;;;4.60;2.42;;;;;;;18.04;58.32;100770.00;1759050;79;21020;-46
2021/06/05 06:00:36;;;;;;;7.25;3.35;;;;;;;18.08;58.42;100767.41;1739567;80;20959;-47
2021/06/05 06:03:05;;;;;;;4.70;2.33;;;;;;;18.13;57.79;100758.43;1752376;79;21000;-44
2021/06/05 06:05:34;;;;;;;2.58;2.15;;;;;;;18.16;56.33;100756.31;1766397;79;20956;-46
2021/06/05 06:08:00;;;;;;;4.45;2.00;;;;;;;18.21;57.08;100755.07;1749764;79;21752;-44
2021/06/05 06:10:27;;;;;;;2.90;2.08;;;;;;;18.28;57.80;100752.20;1734638;80;20950;-44
2021/06/05 06:12:54;;;;;;;3.22;2.27;;;;;;;18.36;56.48;100755.94;1740678;80;21010;-52
2021/06/05 06:15:24;;;;;;;4.70;1.90;;;;;;;18.43;56.11;100745.97;1744044;79;21436;-45
2021/06/05 06:17:53;;;;;;;3.72;1.95;;;;;;;18.50;56.79;100744.45;1766455;79;20968;-44
2021/06/05 06:20:25;;;;;;;3.70;2.08;;;;;;;18.56;56.73;100739.34;1736161;80;20951;-42
2021/06/05 06:22:51;;;;;;;3.87;2.35;;;;;;;18.63;55.94;100740.17;1752448;79;20941;-47
2021/06/05 06:25:20;;;;;;;3.15;2.30;;;;;;;18.69;55.52;100742.32;1765233;79;20972;-52
2021/06/05 06:27:48;;;;;;;2.77;1.95;;;;;;;18.77;54.36;100741.16;1734666;80;20976;-47
2021/06/05 06:30:18;;;;;;;3.85;1.82;;;;;;;18.83;53.85;100745.19;1745500;79;21479;-49
2021/06/05 06:32:51;;;;;;;5.83;1.92;;;;;;;18.90;53.54;100744.51;1759370;79;21047;-47
2021/06/05 06:35:14;;;;;;;2.98;2.12;;;;;;;18.95;53.28;100738.66;1740796;79;20980;-43
2021/06/05 06:37:42;;;;;;;4.40;2.33;;;;;;;19.00;52.89;100731.88;1761699;79;20932;-46
2021/06/05 06:40:10;;;;;;;4.70;2.20;;;;;;;19.05;52.69;100731.47;1738411;80;20963;-46
2021/06/05 06:42:37;;;;;;;3.15;1.75;;;;;;;19.10;53.24;100729.67;1730690;79;20950;-47
2021/06/05 06:45:05;;;;;;;3.00;2.00;;;;;;;19.16;53.26;100725.94;1746369;79;20979;-50
2021/06/05 06:47:31;;;;;;;6.70;1.98;;;;;;;19.24;51.39;100723.88;1747201;79;21020;-46
2021/06/05 06:49:58;;;;;;;7.00;3.08;;;;;;;19.31;52.40;100734.50;1744507;79;20972;-47
2021/06/05 06:52:26;;;;;;;2.55;1.60;;;;;;;19.37;51.44;100729.87;1748926;79;21031;-49
2021/06/05 06:54:54;;;;;;;3.47;1.80;;;;;;;19.43;49.93;100728.47;1757039;80;21656;-45
2021/06/05 06:57:21;;;;;;;2.30;1.47;;;;;;;19.48;49.00;100728.02;1756256;79;20968;-43
2021/06/05 06:59:49;;;;;;;3.65;1.52;;;;;;;19.50;48.81;100727.39;1756341;79;21016;-44
2021/06/05 07:02:16;;;;;;;6.58;1.72;;;;;;;19.51;48.36;100721.86;1750587;79;21475;-43
2021/06/05 07:04:42;;;;;;;2.10;1.32;;;;;;;19.53;49.13;100723.05;1751405;79;21760;-43
2021/06/05 07:07:11;;;;;;;8.73;2.08;;;;;;;19.57;48.92;100718.56;1735222;81;20966;-45
2021/06/05 07:09:37;;;;;;;2.67;1.65;;;;;;;19.62;48.05;100718.99;1758366;80;21115;-45
2021/06/05 07:12:05;;;;;;;2.67;1.52;;;;;;;19.63;47.81;100720.72;1751935;79;21449;-50
2021/06/05 07:14:33;;;;;;;3.62;2.70;;;;;;;19.65;48.04;100710.62;1753120;80;20984;-49
2021/06/05 07:17:00;;;;;;;3.08;1.72;;;;;;;19.70;47.95;100716.95;1768986;79;21491;-49
2021/06/05 07:19:27;;;;;;;1.95;1.40;;;;;;;19.75;47.86;100713.83;1763477;80;20937;-41
2021/06/05 07:21:54;;;;;;;3.75;1.75;;;;;;;19.80;48.37;100716.45;1734704;80;20964;-52
2021/06/05 07:24:21;;;;;;;2.90;1.47;;;;;;;19.88;49.10;100708.50;1743753;79;20936;-44
2021/06/05 07:26:47;;;;;;;4.28;1.60;;;;;;;19.97;48.16;100707.27;1761608;79;20969;-45
2021/06/05 07:29:14;;;;;;;3.52;1.92;;;;;;;20.03;48.21;100713.44;1747194;79;21392;-45
2021/06/05 07:31:45;;;;;;;4.28;1.55;;;;;;;20.09;47.87;100703.39;1764191;80;20975;-41
2021/06/05 07:34:12;;;;;;;2.30;1.47;;;;;;;20.15;47.57;100701.44;1733080;79;21382;-44
2021/06/05 07:36:45;;;;;;;1.92;1.25;;;;;;;20.23;47.98;100697.50;1748502;80;20987;-45
2021/06/05 07:39:18;;;;;;;4.62;3.75;;;;;;;20.29;46.39;100696.08;1742301;79;21414;-42
2021/06/05 07:41:44;;;;;;;5.73;3.13;;;;;;;20.36;46.19;100693.61;1765415;79;20957;-42
2021/06/05 07:44:11;;;;;;;2.25;1.60;;;;;;;20.41;45.88;100697.61;1739284;79;20971;-44
2021/06/05 07:46:42;;;;;;;2.02;1.25;;;;;;;20.46;44.58;100689.89;1743022;79;20968;-44
2021/06/05 07:49:10;;;;;;;3.37;1.85;;;;;;;20.50;45.54;100688.57;1743457;79;20967;-45
2021/06/05 07:51:36;;;;;;;1.85;1.25;;;;;;;20.56;44.76;100679.53;1745572;79;21031;-44
2021/06/05 07:54:04;;;;;;;2.20;1.60;;;;;;;20.61;43.86;100673.16;1754363;79;21004;-45
2021/06/05 07:56:31;;;;;;;4.95;1.40;;;;;;;20.64;43.62;100681.02;1758956;80;21042;-45
2021/06/05 07:58:58;;;;;;;3.47;1.55;;;;;;;20.66;44.04;100674.44;1743621;80;21543;-48
2021/06/05 08:01:25;;;;;;;9.70;5.47;;;;;;;20.68;42.71;100674.27;1764004;79;20976;-45
2021/06/05 08:03:52;;;;;;;2.95;1.82;;;;;;;20.69;43.08;100667.86;1760182;80;21412;-51
2021/06/05 08:06:19;;;;;;;2.80;1.27;;;;;;;20.69;43.32;100671.93;1759332;80;20960;-44
2021/06/05 08:08:48;;;;;;;3.98;1.22;;;;;;;20.72;43.05;100665.70;1750374;79;20952;-44
2021/06/05 08:11:17;;;;;;;2.17;1.17;;;;;;;20.76;42.41;100660.81;1752431;80;21010;-46
2021/06/05 08:13:43;;;;;;;1.95;1.10;;;;;;;20.78;42.54;100658.81;1758205;79;20936;-50
2021/06/05 08:16:15;;;;;;;2.92;0.93;;;;;;;20.81;42.64;100661.20;1751687;79;20992;-48
2021/06/05 08:18:42;;;;;;;4.78;1.55;;;;;;;20.86;41.25;100664.31;1753268;80;20995;-46
2021/06/05 08:21:12;;;;;;;3.50;1.40;;;;;;;20.92;39.34;100658.81;1753631;79;20962;-47
2021/06/05 08:23:39;;;;;;;7.45;1.70;;;;;;;20.93;39.55;100661.35;1754946;79;21035;-47
2021/06/05 08:26:07;;;;;;;8.60;2.45;;;;;;;20.94;39.61;100655.42;1757677;79;20988;-48
2021/06/05 08:28:34;;;;;;;3.10;1.50;;;;;;;20.91;39.43;100650.31;1757162;79;21492;-50
2021/06/05 08:31:04;;;;;;;4.78;1.45;;;;;;;20.87;39.57;100655.20;1755891;79;20936;-52
2021/06/05 08:33:31;;;;;;;4.67;2.02;;;;;;;20.83;38.83;100656.50;1751200;80;21195;-45
2021/06/05 08:35:57;;;;;;;3.27;1.50;;;;;;;20.83;40.27;100649.72;1754334;80;20960;-46
2021/06/05 08:38:26;;;;;;;3.60;2.02;;;;;;;20.87;39.14;100649.78;1743102;80;21941;-43
2021/06/05 08:41:18;;;;;;;5.28;1.50;;;;;;;20.91;39.38;100651.16;1763439;79;20968;-43
2021/06/05 08:43:55;;;;;;;2.17;1.37;;;;;;;20.94;39.03;100649.52;1754250;79;20922;-42
2021/06/05 08:46:27;;;;;;;7.17;2.17;;;;;;;21.01;39.57;100644.83;1719247;81;20940;-45
2021/06/05 08:48:57;;;;;;;3.17;1.37;;;;;;;21.06;39.89;100640.65;1750786;80;20945;-45
2021/06/05 08:51:41;;;;;;;4.08;1.12;;;;;;;21.12;39.06;100643.27;1745006;80;20992;-46
2021/06/05 08:54:31;;;;;;;2.98;1.47;;;;;;;21.17;38.95;100640.44;1677937;83;21030;-43
2021/06/05 08:57:46;;;;;;;8.15;1.20;;;;;;;21.24;39.05;100635.73;1706368;81;21054;-42
2021/06/05 09:00:40;;;;;;;1.82;1.12;;;;;;;21.29;38.44;100632.94;1707491;82;21083;-45
2021/06/05 09:03:15;;;;;;;2.50;1.55;;;;;;;21.36;39.75;100630.43;1712159;81;21025;-45
2021/06/05 09:05:51;;;;;;;1.65;1.30;;;;;;;21.41;39.46;100636.27;1711862;82;21011;-47
2021/06/05 09:08:19;;;;;;;2.50;1.60;;;;;;;21.47;39.41;100632.08;1710669;81;21064;-46
2021/06/05 09:10:47;;;;;;;2.33;1.50;;;;;;;21.50;38.45;100631.27;1693153;83;20994;-46
2021/06/05 09:13:13;;;;;;;2.62;1.32;;;;;;;21.56;38.56;100624.36;1689738;81;20975;-44
2021/06/05 09:15:41;;;;;;;2.62;1.22;;;;;;;21.62;39.11;100625.11;1677393;82;21635;-42
2021/06/05 09:18:10;;;;;;;2.67;1.40;;;;;;;21.67;38.10;100621.89;1677285;82;21146;-41
2021/06/05 09:20:43;;;;;;;2.25;1.32;;;;;;;21.71;38.57;100626.00;1682106;82;21048;-43
2021/06/05 09:23:32;;;;;;;4.35;1.90;;;;;;;21.77;38.38;100629.42;1677694;83;20995;-51
2021/06/05 09:26:23;;;;;;;2.87;1.72;;;;;;;21.80;37.39;100623.19;1693031;82;21602;-50
2021/06/05 09:29:16;;;;;;;4.97;2.92;;;;;;;21.80;36.30;100617.77;1696062;83;20978;-42
2021/06/05 09:31:55;;;;;;;3.98;1.90;;;;;;;21.80;37.75;100612.34;1693424;82;20992;-42
2021/06/05 09:34:25;;;;;;;4.00;1.50;;;;;;;21.86;38.83;100610.84;1756712;79;21328;-43
2021/06/05 09:36:52;;;;;;;7.10;1.55;;;;;;;21.95;38.59;100607.69;1701978;82;20998;-46
2021/06/05 09:39:42;;;;;;;2.27;1.40;;;;;;;21.99;37.28;100607.70;1718302;80;20932;-47
2021/06/05 09:42:12;;;;;;;1.82;1.20;;;;;;;22.04;37.66;100602.63;1753428;79;20932;-46
2021/06/05 09:44:46;;;;;;;2.52;1.35;;;;;;;22.09;36.17;100606.23;1713254;81;20964;-53
2021/06/05 09:47:19;;;;;;;1.32;1.00;;;;;;;22.08;35.39;100608.61;1719378;82;21456;-44
2021/06/05 09:49:50;;;;;;;2.10;1.02;;;;;;;22.06;36.02;100600.61;1695203;82;21008;-51
2021/06/05 09:52:27;;;;;;;4.55;2.72;;;;;;;22.08;36.53;100598.59;1749017;79;21467;-48
2021/06/05 09:54:57;;;;;;;3.05;1.55;;;;;;;22.12;35.38;100597.75;1744008;79;20964;-47
2021/06/05 09:57:32;;;;;;;4.45;2.17;;;;;;;22.13;36.91;100596.76;1732675;80;21464;-45
2021/06/05 10:00:14;;;;;;;2.92;1.55;;;;;;;22.17;37.63;100590.81;1758853;79;21058;-49
2021/06/05 10:02:48;;;;;;;2.12;1.47;;;;;;;22.24;36.69;100586.98;1762038;79;21455;-47
2021/06/05 10:05:36;;;;;;;5.95;3.35;;;;;;;22.28;36.02;100586.17;1762697;80;21456;-46
2021/06/05 10:08:37;;;;;;;12.45;5.78;;;;;;;22.31;35.58;100592.11;1769159;78;21001;-54
2021/06/05 10:11:32;;;;;;;7.25;4.40;;;;;;;22.33;36.42;100579.23;1753366;79;20968;-55
2021/06/05 10:14:13;;;;;;;4.37;1.72;;;;;;;22.34;35.61;100578.71;1758729;80;20991;-51
2021/06/05 10:16:55;;;;;;;4.58;1.60;;;;;;;22.38;36.26;100577.38;1753451;79;21031;-49
2021/06/05 10:19:42;;;;;;;1.65;1.05;;;;;;;22.45;35.98;100570.25;1742004;79;21008;-48
2021/06/05 10:22:09;;;;;;;2.77;1.17;;;;;;;22.51;35.98;100568.77;1766934;79;21002;-52
2021/06/05 10:24:59;;;;;;;3.05;1.00;;;;;;;22.57;37.15;100569.45;1728794;81;21003;-52
2021/06/05 10:27:35;;;;;;;2.95;1.50;;;;;;;22.62;35.89;100561.65;1748024;79;20949;-51
2021/06/05 10:30:26;;;;;;;5.70;1.37;;;;;;;22.66;36.10;100560.31;1729004;80;20977;-52
2021/06/05 10:32:53;;;;;;;3.50;1.57;;;;;;;22.71;36.02;100559.30;1763864;79;21768;-47
2021/06/05 10:35:30;;;;;;;1.90;1.20;;;;;;;22.77;36.17;100561.86;1753013;79;20960;-54
2021/06/05 10:38:05;;;;;;;4.60;1.67;;;;;;;22.77;35.32;100562.70;1752715;78;20967;-50
2021/06/05 10:40:31;;;;;;;6.67;1.95;;;;;;;22.76;35.91;100558.81;1748439;79;21011;-54
2021/06/05 10:43:00;;;;;;;3.25;1.77;;;;;;;22.79;35.96;100556.59;1767867;79;20928;-57
2021/06/05 10:45:30;;;;;;;2.58;1.35;;;;;;;22.83;35.90;100544.38;1744210;80;21460;-53
2021/06/05 10:48:18;;;;;;;4.17;1.05;;;;;;;22.89;36.42;100538.77;1746478;80;21475;-47
2021/06/05 10:50:51;;;;;;;2.27;1.75;;;;;;;22.96;35.93;100541.68;1751276;79;20979;-47
2021/06/05 10:53:34;;;;;;;2.37;1.30;;;;;;;23.01;36.32;100542.90;1743801;79;21437;-45
2021/06/05 10:56:14;;;;;;;3.45;1.60;;;;;;;23.07;35.33;100536.77;1762624;79;20999;-46
2021/06/05 10:58:53;;;;;;;2.77;1.27;;;;;;;23.13;35.67;100539.31;1755669;79;21455;-47
2021/06/05 11:01:41;;;;;;;4.80;1.35;;;;;;;23.14;34.16;100544.27;1692712;82;21467;-42
2021/06/05 11:04:18;;;;;;;3.52;1.95;;;;;;;23.11;34.18;100538.66;1757603;79;20951;-41
2021/06/05 11:06:52;;;;;;;3.20;1.30;;;;;;;23.10;34.15;100542.37;1658250;83;21110;-43
2021/06/05 11:09:32;;;;;;;4.53;1.87;;;;;;;23.07;35.30;100541.36;1683354;83;21063;-47
2021/06/05 11:12:16;;;;;;;2.25;1.40;;;;;;;23.01;34.26;100544.26;1684379;84;21413;-44
2021/06/05 11:14:45;;;;;;;5.30;1.45;;;;;;;22.94;34.98;100554.07;1636859;84;21012;-44
2021/06/05 11:17:27;;;;;;;3.20;1.85;;;;;;;22.86;35.26;100554.06;1680495;83;20978;-43
2021/06/05 11:20:08;;;;;;;2.35;1.30;;;;;;;22.77;34.34;100559.98;1670932;83;21524;-41
2021/06/05 11:23:00;;;;;;;1.40;0.93;;;;;;;22.65;34.22;100556.75;1631245;85;21030;-44
2021/06/05 11:25:44;;;;;;;3.60;1.20;;;;;;;22.52;32.92;100560.43;1646116;85;21562;-41
2021/06/05 11:28:34;;;;;;;1.98;1.15;;;;;;;22.43;34.51;100555.49;1634101;85;20992;-42
2021/06/05 11:31:05;;;;;;;2.30;1.30;;;;;;;22.42;34.27;100554.29;1640340;85;21044;-44
2021/06/05 11:33:45;;;;;;;4.25;1.70;;;;;;;22.41;34.18;100551.25;1602717;85;21007;-43
2021/06/05 11:36:42;;;;;;;2.20;1.17;;;;;;;22.40;34.04;100556.31;1645866;85;21539;-44
2021/06/05 11:39:14;;;;;;;2.77;1.17;;;;;;;22.39;33.13;100549.19;1639592;85;21012;-50
2021/06/05 11:41:49;;;;;;;1.50;0.85;;;;;;;22.37;32.78;100551.22;1637165;85;21069;-45
2021/06/05 11:44:33;;;;;;;5.60;1.75;;;;;;;22.37;33.87;100546.63;1666114;85;21527;-50